This is the latest recevied weather packets stored in our database for station/object W4DEX-2. If no packets are shown the sender has not sent any weather packets the latest 10 day(s).
| Time | Temp. | Humidity | Pressure | Rain* | Wind** | Luminosity | Snow |
|---|---|---|---|---|---|---|---|
| 1777498502 | 25.56° C | 53% | 1007.5 hPa | 0 mm | 5.36 m/s, 180° | - | - |
| 1777498202 | 25° C | 54% | 1007.6 hPa | 0 mm | 4.92 m/s, 180° | - | - |
| 1777497903 | 26.11° C | 54% | 1007.5 hPa | 0 mm | 4.92 m/s, 182° | - | - |
| 1777497602 | 26.67° C | 50% | 1007.5 hPa | 0 mm | 4.92 m/s, 181° | - | - |
| 1777497303 | 26.11° C | 50% | 1007.5 hPa | 0 mm | 5.81 m/s, 185° | - | - |
| 1777497003 | 26.11° C | 52% | 1007.4 hPa | 0 mm | 4.47 m/s, 180° | - | - |
| 1777496702 | 25.56° C | 54% | 1007.7 hPa | 0 mm | 5.36 m/s, 180° | - | - |
| 1777496403 | 25.56° C | 54% | 1007.7 hPa | 0 mm | 4.92 m/s, 175° | - | - |
| 1777496103 | 25° C | 54% | 1007.6 hPa | 0 mm | 5.36 m/s, 177° | - | - |
| 1777495802 | 25° C | 54% | 1007.8 hPa | 0 mm | 4.92 m/s, 181° | - | - |
| 1777495502 | 25.56° C | 53% | 1007.7 hPa | 0 mm | 5.81 m/s, 180° | - | - |
| 1777495203 | 26.11° C | 50% | 1007.8 hPa | 0 mm | 4.92 m/s, 177° | - | - |
| 1777494903 | 25.56° C | 51% | 1007.8 hPa | 0 mm | 4.92 m/s, 180° | - | - |
| 1777494002 | 26.11° C | 53% | 1008.1 hPa | 0 mm | 4.92 m/s, 178° | - | - |
| 1777493702 | 26.11° C | 53% | 1008 hPa | 0 mm | 4.92 m/s, 173° | - | - |
| 1777493403 | 26.67° C | 49% | 1007.9 hPa | 0 mm | 5.36 m/s, 184° | - | - |
| 1777492802 | 26.11° C | 50% | 1008.3 hPa | 0 mm | 5.36 m/s, 176° | - | - |
| 1777492503 | 25° C | 52% | 1008.6 hPa | 0 mm | 4.47 m/s, 180° | - | - |
| 1777491903 | 27.22° C | 46% | 1008.7 hPa | 0 mm | 4.92 m/s, 185° | - | - |
| 1777491302 | 27.22° C | 47% | 1008.7 hPa | 0 mm | 4.92 m/s, 189° | - | - |
| 1777491002 | 26.67° C | 51% | 1008.6 hPa | 0 mm | 5.36 m/s, 183° | - | - |
| 1777490703 | 26.11° C | 53% | 1008.9 hPa | 0 mm | 5.36 m/s, 188° | - | - |
| 1777490402 | 26.11° C | 54% | 1008.8 hPa | 0 mm | 5.36 m/s, 183° | - | - |
| 1777490102 | 26.67° C | 54% | 1009 hPa | 0 mm | 4.92 m/s, 184° | - | - |
| 1777488302 | 25.56° C | 53% | 1009.5 hPa | 0 mm | 5.81 m/s, 178° | - | - |
* Rain latest hour (hover to see other rain measurements)
** Current wind speed in m/s (hover to see current wind gust speed)